createdAt,value
2018-05-01T00:00:11.265Z,99962.51
2018-05-01T00:02:39.645Z,99943.11
2018-05-01T00:05:07.974Z,99943.88
2018-05-01T00:07:37.068Z,99937.70
2018-05-01T00:10:06.376Z,99938.12
2018-05-01T00:12:35.455Z,99937.64
2018-05-01T00:15:03.795Z,99929.55
2018-05-01T00:17:32.149Z,99927.15
2018-05-01T00:20:00.471Z,99924.39
2018-05-01T00:22:28.807Z,99921.05
2018-05-01T00:24:57.147Z,99918.88
2018-05-01T00:27:25.446Z,99923.15
2018-05-01T00:29:53.762Z,99911.75
2018-05-01T00:32:22.518Z,99907.56
2018-05-01T00:34:51.594Z,99906.41
2018-05-01T00:37:19.944Z,99904.94
2018-05-01T00:39:48.300Z,99897.39
2018-05-01T00:42:16.628Z,99894.56
2018-05-01T00:44:44.958Z,99896.66
2018-05-01T00:47:13.332Z,99882.41
2018-05-01T00:49:41.665Z,99880.81
2018-05-01T00:52:27.748Z,99889.08
2018-05-01T00:54:56.119Z,99881.97
2018-05-01T00:57:24.439Z,99878.33
2018-05-01T00:59:53.610Z,99883.78
2018-05-01T01:02:21.966Z,99873.41
2018-05-01T01:04:50.327Z,99872.77
2018-05-01T01:07:18.710Z,99880.10
2018-05-01T01:09:47.012Z,99883.15
2018-05-01T01:12:15.317Z,99864.30
2018-05-01T01:14:44.093Z,99880.74
2018-05-01T01:17:12.446Z,99888.18
2018-05-01T01:19:40.834Z,99917.08
2018-05-01T01:22:09.205Z,99921.47
2018-05-01T01:24:37.536Z,99888.38
2018-05-01T01:27:05.862Z,99878.13
2018-05-01T01:29:34.222Z,99912.06
2018-05-01T01:32:18.795Z,99882.73
2018-05-01T01:34:47.763Z,99887.53
2018-05-01T01:37:15.273Z,99885.34
2018-05-01T01:39:42.795Z,99881.58
2018-05-01T01:42:11.113Z,99893.41
2018-05-01T01:44:38.622Z,99891.64
2018-05-01T01:47:06.918Z,99887.33
2018-05-01T01:49:34.482Z,99902.74
2018-05-01T01:52:01.982Z,99904.09
2018-05-01T01:54:30.002Z,99898.86
2018-05-01T01:56:58.170Z,99903.88
2018-05-01T01:59:25.679Z,99900.85
2018-05-01T02:01:53.190Z,99895.44
2018-05-01T02:04:21.499Z,99904.55
2018-05-01T02:06:49.030Z,99896.57
2018-05-01T02:09:16.539Z,99899.95
2018-05-01T02:11:44.121Z,99897.17
2018-05-01T02:14:11.647Z,99902.84
2018-05-01T02:16:39.172Z,99897.59
2018-05-01T02:19:07.349Z,99900.01
2018-05-01T02:21:34.896Z,99914.27
2018-05-01T02:24:03.180Z,99914.56
2018-05-01T02:26:31.514Z,99920.44
2018-05-01T02:28:59.039Z,99923.56
2018-05-01T02:31:26.556Z,99926.51
2018-05-01T02:33:54.114Z,99932.79
2018-05-01T02:36:21.658Z,99936.59
2018-05-01T02:38:49.203Z,99936.69
2018-05-01T02:41:17.223Z,99938.25
2018-05-01T02:43:44.701Z,99940.33
2018-05-01T02:46:12.270Z,99947.72
2018-05-01T02:48:39.847Z,99950.36
2018-05-01T02:51:07.384Z,99990.14
2018-05-01T02:53:34.925Z,99980.38
2018-05-01T02:56:03.455Z,99961.02
2018-05-01T02:58:30.987Z,99971.68
2018-05-01T03:00:58.507Z,99961.92
2018-05-01T03:03:26.171Z,99969.71
2018-05-01T03:05:53.724Z,99971.68
2018-05-01T03:08:21.276Z,99981.80
2018-05-01T03:10:48.837Z,99970.83
2018-05-01T03:13:16.391Z,99984.02
2018-05-01T03:15:43.909Z,99981.06
2018-05-01T03:18:11.451Z,99981.89
2018-05-01T03:20:38.978Z,99992.75
2018-05-01T03:23:06.490Z,99989.20
2018-05-01T03:25:34.388Z,100007.31
2018-05-01T03:28:01.929Z,100017.55
2018-05-01T03:30:29.459Z,100005.70
2018-05-01T03:32:57.023Z,99985.45
2018-05-01T03:35:24.536Z,100005.69
2018-05-01T03:37:52.081Z,99991.53
2018-05-01T03:40:19.638Z,99990.65
2018-05-01T03:42:47.195Z,100001.47
2018-05-01T03:45:14.718Z,99998.88
2018-05-01T03:47:43.323Z,99997.78
2018-05-01T03:50:10.828Z,100005.45
2018-05-01T03:52:38.348Z,100005.14
2018-05-01T03:55:05.916Z,100008.76
2018-05-01T03:57:33.463Z,100013.68
2018-05-01T04:00:00.974Z,100008.55
2018-05-01T04:02:28.508Z,100016.39
2018-05-01T04:04:56.049Z,100006.77
2018-05-01T04:07:23.590Z,100008.53
2018-05-01T04:09:51.512Z,100006.37
2018-05-01T04:12:19.023Z,100001.45
2018-05-01T04:14:46.560Z,100001.61
2018-05-01T04:17:14.882Z,100017.69
2018-05-01T04:19:42.405Z,100017.02
2018-05-01T04:22:09.937Z,100017.20
2018-05-01T04:24:37.504Z,100017.17
2018-05-01T04:27:05.036Z,100018.16
2018-05-01T04:29:32.567Z,100042.52
2018-05-01T04:32:00.511Z,100039.59
2018-05-01T04:34:28.020Z,100040.30
2018-05-01T04:36:55.572Z,100038.14
2018-05-01T04:39:23.116Z,100047.49
2018-05-01T04:41:50.643Z,100044.20
2018-05-01T04:44:18.931Z,100064.50
2018-05-01T04:46:46.546Z,100058.60
2018-05-01T04:49:14.066Z,100055.98
2018-05-01T04:51:41.676Z,100053.64
2018-05-01T04:54:09.419Z,100055.91
2018-05-01T04:56:36.967Z,100059.02
2018-05-01T04:59:04.484Z,100060.28
2018-05-01T05:01:32.834Z,100078.00
2018-05-01T05:04:00.372Z,100080.80
2018-05-01T05:06:27.898Z,100078.16
2018-05-01T05:08:55.458Z,100094.13
2018-05-01T05:11:23.003Z,100093.20
2018-05-01T05:13:51.301Z,100083.30
2018-05-01T05:16:19.109Z,100081.29
2018-05-01T05:18:46.633Z,100092.12
2018-05-01T05:21:14.153Z,100095.13
2018-05-01T05:23:41.689Z,100093.07
2018-05-01T05:26:09.235Z,100105.69
2018-05-01T05:28:36.767Z,100106.31
2018-05-01T05:31:04.328Z,100106.70
2018-05-01T05:33:31.911Z,100096.17
2018-05-01T05:35:59.440Z,100125.15
2018-05-01T05:41:01.544Z,100109.34
2018-05-01T05:43:29.088Z,100121.83
2018-05-01T05:45:56.642Z,100110.92
2018-05-01T05:48:24.937Z,100097.70
2018-05-01T05:50:52.474Z,100103.05
2018-05-01T05:53:20.038Z,100116.82
2018-05-01T05:55:48.338Z,100129.06
2018-05-01T05:58:16.185Z,100127.86
2018-05-01T06:00:44.479Z,100126.06
2018-05-01T06:03:12.015Z,100134.05
2018-05-01T06:05:39.573Z,100150.13
2018-05-01T06:08:07.892Z,100125.81
2018-05-01T06:10:35.421Z,100126.44
2018-05-01T06:13:02.994Z,100133.13
2018-05-01T06:15:30.544Z,100144.92
2018-05-01T06:17:58.122Z,100146.33
2018-05-01T06:20:25.798Z,100142.95
2018-05-01T06:22:53.329Z,100145.03
2018-05-01T06:25:20.864Z,100164.53
2018-05-01T06:27:48.433Z,100147.72
2018-05-01T06:30:16.765Z,100152.78
2018-05-01T06:32:44.276Z,100189.28
2018-05-01T06:35:12.605Z,100138.11
2018-05-01T06:37:40.108Z,100154.47
2018-05-01T06:40:07.630Z,100186.03
2018-05-01T06:42:35.620Z,100141.24
2018-05-01T06:45:03.161Z,100141.70
2018-05-01T06:47:30.710Z,100142.69
2018-05-01T06:49:58.259Z,100148.02
2018-05-01T06:52:25.790Z,100164.05
2018-05-01T06:54:54.150Z,100152.95
2018-05-01T06:57:21.700Z,100145.54
2018-05-01T06:59:49.215Z,100173.77
2018-05-01T07:02:16.779Z,100162.09
2018-05-01T07:04:44.648Z,100158.59
2018-05-01T07:07:12.244Z,100145.47
2018-05-01T07:09:39.760Z,100151.49
2018-05-01T07:12:07.434Z,100164.12
2018-05-01T07:14:35.024Z,100173.45
2018-05-01T07:17:02.556Z,100162.16
2018-05-01T07:19:30.144Z,100159.11
2018-05-01T07:21:57.693Z,100163.16
2018-05-01T07:24:25.251Z,100182.46
2018-05-01T07:26:52.891Z,100182.39
2018-05-01T07:29:20.549Z,100165.33
2018-05-01T07:31:48.112Z,100167.69
2018-05-01T07:34:15.688Z,100165.83
2018-05-01T07:36:43.214Z,100187.16
2018-05-01T07:39:10.737Z,100168.61
2018-05-01T07:41:38.340Z,100208.59
2018-05-01T07:44:06.955Z,100177.48
2018-05-01T07:46:34.510Z,100183.25
2018-05-01T07:49:02.501Z,100165.13
2018-05-01T07:51:30.119Z,100188.23
2018-05-01T07:53:57.702Z,100183.28
2018-05-01T07:56:25.603Z,100184.09
2018-05-01T07:58:53.500Z,100182.48
2018-05-01T08:01:21.812Z,100204.72
2018-05-01T08:03:49.350Z,100173.47
2018-05-01T08:06:16.888Z,100212.47
2018-05-01T08:08:45.212Z,100212.81
2018-05-01T08:11:13.278Z,100212.95
2018-05-01T08:13:40.802Z,100215.16
2018-05-01T08:16:08.407Z,100226.91
2018-05-01T08:18:36.013Z,100215.09
2018-05-01T08:21:04.351Z,100221.59
2018-05-01T08:23:32.143Z,100220.75
2018-05-01T08:25:59.729Z,100238.41
2018-05-01T08:28:27.296Z,100237.98
2018-05-01T08:30:55.589Z,100240.19
2018-05-01T08:33:23.562Z,100229.97
2018-05-01T08:35:51.092Z,100252.36
2018-05-01T08:38:19.383Z,100247.13
2018-05-01T08:40:47.717Z,100241.13
2018-05-01T08:43:15.273Z,100247.63
2018-05-01T08:45:43.628Z,100243.08
2018-05-01T08:48:11.175Z,100246.95
2018-05-01T08:50:38.691Z,100239.53
2018-05-01T08:53:06.204Z,100259.79
2018-05-01T08:55:34.185Z,100264.19
2018-05-01T08:58:01.713Z,100262.41
2018-05-01T09:00:29.548Z,100269.25
2018-05-01T09:02:57.084Z,100272.20
2018-05-01T09:05:24.629Z,100266.47
2018-05-01T09:07:52.159Z,100266.89
2018-05-01T09:10:19.718Z,100287.23
2018-05-01T09:12:47.994Z,100279.83
2018-05-01T09:15:15.580Z,100293.16
2018-05-01T09:17:43.822Z,100298.39
2018-05-01T09:20:11.280Z,100304.06
2018-05-01T09:22:39.586Z,100290.54
2018-05-01T09:25:07.189Z,100298.73
2018-05-01T09:27:34.748Z,100300.61
2018-05-01T09:30:02.447Z,100285.22
2018-05-01T09:32:29.982Z,100309.20
2018-05-01T09:34:57.501Z,100305.23
2018-05-01T09:37:25.014Z,100314.05
2018-05-01T09:39:52.738Z,100309.97
2018-05-01T09:42:20.296Z,100308.11
2018-05-01T09:44:47.864Z,100336.16
2018-05-01T09:47:15.457Z,100325.77
2018-05-01T09:49:43.045Z,100338.95
2018-05-01T09:54:52.697Z,100344.14
2018-05-01T09:57:22.100Z,100351.54
2018-05-01T09:59:50.454Z,100349.09
2018-05-01T10:02:19.488Z,100359.65
2018-05-01T10:04:47.833Z,100366.50
2018-05-01T10:07:16.942Z,100365.56
2018-05-01T10:09:46.060Z,100370.77
2018-05-01T10:12:14.500Z,100370.67
2018-05-01T10:14:42.786Z,100369.23
2018-05-01T10:17:11.089Z,100371.34
2018-05-01T10:19:40.415Z,100372.87
2018-05-01T10:22:08.832Z,100384.20
2018-05-01T10:24:37.143Z,100384.24
2018-05-01T10:27:06.272Z,100369.58
2018-05-01T10:29:34.622Z,100393.50
2018-05-01T10:32:03.008Z,100387.83
2018-05-01T10:34:31.402Z,100381.07
2018-05-01T10:36:59.733Z,100369.75
2018-05-01T10:39:28.077Z,100402.03
2018-05-01T10:41:57.671Z,100404.56
2018-05-01T10:44:25.976Z,100401.70
2018-05-01T10:46:54.307Z,100401.95
2018-05-01T10:49:22.869Z,100413.70
2018-05-01T10:51:51.147Z,100420.80
2018-05-01T10:54:19.463Z,100425.12
2018-05-01T10:56:47.872Z,100429.00
2018-05-01T10:59:16.219Z,100430.87
2018-05-01T11:01:44.537Z,100445.48
2018-05-01T11:04:13.338Z,100450.73
2018-05-01T11:06:41.652Z,100456.28
2018-05-01T11:09:09.989Z,100452.25
2018-05-01T11:11:38.382Z,100467.88
2018-05-01T11:14:06.690Z,100466.80
2018-05-01T11:16:35.022Z,100469.91
2018-05-01T11:19:03.488Z,100479.30
2018-05-01T11:21:31.821Z,100496.20
2018-05-01T11:24:00.170Z,100477.14
2018-05-01T11:26:28.894Z,100496.52
2018-05-01T11:28:57.224Z,100502.25
2018-05-01T11:31:25.544Z,100503.55
2018-05-01T11:33:54.747Z,100503.53
2018-05-01T11:36:23.151Z,100509.20
2018-05-01T11:38:51.507Z,100495.78
2018-05-01T11:41:19.869Z,100504.66
2018-05-01T11:43:48.222Z,100531.53
2018-05-01T11:46:16.563Z,100542.80
2018-05-01T11:48:45.180Z,100546.89
2018-05-01T11:51:13.566Z,100540.32
2018-05-01T11:53:41.945Z,100561.66
2018-05-01T11:56:10.288Z,100553.17
2018-05-01T11:58:38.651Z,100573.27
2018-05-01T12:01:07.084Z,100593.59
2018-05-01T12:03:35.361Z,100569.13
2018-05-01T12:06:03.723Z,100570.62
2018-05-01T12:08:32.289Z,100575.00
2018-05-01T12:11:00.953Z,100582.91
2018-05-01T12:13:29.256Z,100603.92
2018-05-01T12:15:57.609Z,100601.03
2018-05-01T12:18:25.969Z,100595.16
2018-05-01T12:20:54.322Z,100610.64
2018-05-01T12:23:22.728Z,100601.45
2018-05-01T12:25:51.848Z,100615.68
2018-05-01T12:28:20.197Z,100612.58
2018-05-01T12:30:48.553Z,100623.37
2018-05-01T12:33:17.086Z,100626.80
2018-05-01T12:35:45.586Z,100632.08
2018-05-01T12:38:13.938Z,100635.62
2018-05-01T12:40:43.085Z,100633.51
2018-05-01T12:43:11.430Z,100648.94
2018-05-01T12:45:39.772Z,100657.11
2018-05-01T12:48:08.234Z,100666.66
2018-05-01T12:50:36.517Z,100663.66
2018-05-01T12:53:04.946Z,100671.45
2018-05-01T12:55:33.680Z,100674.23
2018-05-01T12:58:02.034Z,100682.18
2018-05-01T13:00:30.364Z,100667.25
2018-05-01T13:02:58.999Z,100666.59
2018-05-01T13:05:27.324Z,100674.47
2018-05-01T13:07:55.636Z,100682.62
2018-05-01T13:10:23.991Z,100677.63
2018-05-01T13:12:53.097Z,100684.05
2018-05-01T13:15:22.172Z,100679.16
2018-05-01T13:17:50.959Z,100692.29
2018-05-01T13:20:19.317Z,100690.59
2018-05-01T13:22:47.655Z,100688.95
2018-05-01T13:25:16.008Z,100691.41
2018-05-01T13:27:44.373Z,100698.50
2018-05-01T13:30:12.741Z,100694.80
2018-05-01T13:32:41.136Z,100706.25
2018-05-01T13:35:09.468Z,100711.60
2018-05-01T13:37:37.832Z,100707.02
2018-05-01T13:40:06.273Z,100706.42
2018-05-01T13:42:35.592Z,100718.87
2018-05-01T13:45:03.905Z,100721.38
2018-05-01T13:47:32.263Z,100721.11
2018-05-01T13:50:00.617Z,100737.05
2018-05-01T13:52:28.972Z,100726.59
2018-05-01T13:54:57.628Z,100734.47
2018-05-01T13:57:25.953Z,100742.25
2018-05-01T13:59:55.077Z,100737.75
2018-05-01T14:02:23.936Z,100739.98
2018-05-01T14:04:52.416Z,100745.39
2018-05-01T14:07:20.798Z,100734.99
2018-05-01T14:09:49.203Z,100766.48
2018-05-01T14:12:18.291Z,100755.45
2018-05-01T14:14:47.394Z,100764.03
2018-05-01T14:17:16.595Z,100753.61
2018-05-01T14:19:44.959Z,100775.31
2018-05-01T14:22:13.303Z,100769.95
2018-05-01T14:24:41.961Z,100764.55
2018-05-01T14:27:10.272Z,100776.95
2018-05-01T14:29:38.641Z,100775.83
2018-05-01T14:32:06.997Z,100782.99
2018-05-01T14:34:35.347Z,100794.91
2018-05-01T14:37:04.465Z,100788.91
2018-05-01T14:39:32.822Z,100799.87
2018-05-01T14:42:02.008Z,100806.23
2018-05-01T14:44:30.325Z,100796.87
2018-05-01T14:46:58.981Z,100803.33
2018-05-01T14:49:28.121Z,100812.55
2018-05-01T14:51:56.482Z,100805.42
2018-05-01T14:54:24.856Z,100806.83
2018-05-01T14:56:53.296Z,100802.98
2018-05-01T14:59:21.681Z,100813.52
2018-05-01T15:01:50.053Z,100821.28
2018-05-01T15:04:18.400Z,100828.22
2018-05-01T15:06:46.882Z,100843.77
2018-05-01T15:09:15.460Z,100848.34
2018-05-01T15:11:44.028Z,100853.43
2018-05-01T15:14:12.383Z,100854.19
2018-05-01T15:16:40.764Z,100860.46
2018-05-01T15:19:09.710Z,100856.90
2018-05-01T15:21:38.068Z,100862.82
2018-05-01T15:24:06.445Z,100874.95
2018-05-01T15:26:34.803Z,100862.67
2018-05-01T15:29:03.935Z,100863.18
2018-05-01T15:31:32.911Z,100866.95
2018-05-01T15:34:01.245Z,100867.29
2018-05-01T15:36:29.588Z,100871.95
2018-05-01T15:38:58.005Z,100868.66
2018-05-01T15:41:26.328Z,100880.04
2018-05-01T15:43:54.882Z,100883.75
2018-05-01T15:46:23.254Z,100889.27
2018-05-01T15:48:51.601Z,100887.98
2018-05-01T15:51:19.949Z,100879.94
2018-05-01T15:53:48.828Z,100886.82
2018-05-01T15:56:17.924Z,100882.75
2018-05-01T15:58:46.266Z,100889.47
2018-05-01T16:01:14.700Z,100882.98
2018-05-01T16:03:42.999Z,100884.89
2018-05-01T16:06:11.334Z,100889.99
2018-05-01T16:08:41.219Z,100892.07
2018-05-01T16:11:09.547Z,100897.50
2018-05-01T16:13:37.870Z,100902.00
2018-05-01T16:16:06.794Z,100895.31
2018-05-01T16:18:35.892Z,100902.30
2018-05-01T16:21:05.012Z,100889.95
2018-05-01T16:23:33.365Z,100889.31
2018-05-01T16:26:02.459Z,100890.72
2018-05-01T16:28:30.759Z,100895.52
2018-05-01T16:30:59.857Z,100894.67
2018-05-01T16:33:28.217Z,100892.05
2018-05-01T16:35:57.369Z,100884.41
2018-05-01T16:38:25.871Z,100883.88
2018-05-01T16:40:54.180Z,100882.73
2018-05-01T16:43:23.291Z,100890.72
2018-05-01T16:45:51.659Z,100883.66
2018-05-01T16:48:19.956Z,100883.42
2018-05-01T16:50:48.288Z,100890.60
2018-05-01T16:53:16.779Z,100884.73
2018-05-01T16:55:45.124Z,100891.36
2018-05-01T16:58:13.458Z,100894.17
2018-05-01T17:00:41.876Z,100896.49
2018-05-01T17:03:10.223Z,100899.20
2018-05-01T17:05:38.526Z,100904.24
2018-05-01T17:08:07.005Z,100901.75
2018-05-01T17:10:35.343Z,100908.16
2018-05-01T17:13:04.452Z,100909.84
2018-05-01T17:15:33.657Z,100911.00
2018-05-01T17:18:01.983Z,100912.89
2018-05-01T17:20:30.328Z,100913.25
2018-05-01T17:22:59.077Z,100917.35
2018-05-01T17:25:27.431Z,100919.73
2018-05-01T17:27:56.552Z,100927.32
2018-05-01T17:30:24.907Z,100925.44
2018-05-01T17:32:53.241Z,100933.36
2018-05-01T17:35:21.558Z,100938.48
2018-05-01T17:37:49.893Z,100946.77
2018-05-01T17:40:19.014Z,100943.14
2018-05-01T17:42:47.352Z,100959.73
2018-05-01T17:45:16.040Z,100960.97
2018-05-01T17:47:45.154Z,100960.95
2018-05-01T17:50:13.478Z,100960.45
2018-05-01T17:52:41.850Z,100963.91
2018-05-01T17:55:10.199Z,100965.10
2018-05-01T17:57:38.546Z,100976.16
2018-05-01T18:00:07.709Z,100977.66
2018-05-01T18:02:36.046Z,100981.55
2018-05-01T18:05:05.147Z,100995.52
2018-05-01T18:07:34.024Z,101002.55
2018-05-01T18:10:02.366Z,101000.72
2018-05-01T18:12:30.781Z,100999.86
2018-05-01T18:14:59.094Z,101002.75
2018-05-01T18:17:27.445Z,101010.20
2018-05-01T18:19:56.521Z,101011.11
2018-05-01T18:22:24.875Z,101016.13
2018-05-01T18:24:53.216Z,101018.36
2018-05-01T18:27:21.571Z,101025.25
2018-05-01T18:29:51.167Z,101024.56
2018-05-01T18:32:19.541Z,101024.73
2018-05-01T18:34:47.973Z,101029.09
2018-05-01T18:37:16.384Z,101044.17
2018-05-01T18:39:44.715Z,101045.36
2018-05-01T18:42:13.067Z,101049.52
2018-05-01T18:44:42.193Z,101057.25
2018-05-01T18:47:10.671Z,101066.84
2018-05-01T18:49:39.004Z,101070.50
2018-05-01T18:52:07.735Z,101076.58
2018-05-01T18:54:36.151Z,101081.61
2018-05-01T18:57:04.527Z,101086.02
2018-05-01T18:59:32.897Z,101081.17
2018-05-01T19:02:01.263Z,101087.96
2018-05-01T19:04:29.585Z,101091.19
2018-05-01T19:06:57.947Z,101085.58
2018-05-01T19:09:26.290Z,101091.95
2018-05-01T19:11:54.724Z,101084.66
2018-05-01T19:14:23.462Z,101087.89
2018-05-01T19:16:51.794Z,101099.00
2018-05-01T19:19:20.139Z,101096.20
2018-05-01T19:21:48.482Z,101098.30
2018-05-01T19:24:16.862Z,101117.04
2018-05-01T19:26:45.993Z,101115.41
2018-05-01T19:29:14.408Z,101117.08
2018-05-01T19:31:42.768Z,101114.39
2018-05-01T19:34:11.109Z,101116.83
2018-05-01T19:36:39.819Z,101112.14
2018-05-01T19:39:08.914Z,101112.92
2018-05-01T19:41:37.246Z,101110.86
2018-05-01T19:44:05.644Z,101111.03
2018-05-01T19:46:33.975Z,101120.39
2018-05-01T19:49:03.051Z,101121.17
2018-05-01T19:51:31.381Z,101126.58
2018-05-01T19:53:59.723Z,101120.53
2018-05-01T19:56:28.088Z,101124.20
2018-05-01T19:58:56.958Z,101121.58
2018-05-01T20:01:25.292Z,101118.30
2018-05-01T20:03:53.608Z,101116.16
2018-05-01T20:06:22.759Z,101113.52
2018-05-01T20:08:51.164Z,101121.42
2018-05-01T20:11:19.432Z,101116.50
2018-05-01T20:13:47.797Z,101127.47
2018-05-01T20:16:16.164Z,101128.87
2018-05-01T20:18:44.499Z,101135.88
2018-05-01T20:21:14.133Z,101134.99
2018-05-01T20:23:42.466Z,101147.14
2018-05-01T20:26:11.576Z,101153.08
2018-05-01T20:28:41.015Z,101162.74
2018-05-01T20:31:10.594Z,101173.44
2018-05-01T20:33:39.720Z,101181.40
2018-05-01T20:36:08.110Z,101187.66
2018-05-01T20:38:36.463Z,101197.09
2018-05-01T20:41:04.781Z,101205.63
2018-05-01T20:43:33.515Z,101219.14
2018-05-01T20:46:01.878Z,101220.45
2018-05-01T20:48:31.038Z,101214.19
2018-05-01T20:50:59.404Z,101212.34
2018-05-01T20:53:27.743Z,101220.77
2018-05-01T20:55:56.087Z,101222.20
2018-05-01T20:58:24.434Z,101222.53
2018-05-01T21:00:52.782Z,101222.90
2018-05-01T21:03:21.936Z,101238.50
2018-05-01T21:05:50.888Z,101227.81
2018-05-01T21:08:19.249Z,101232.69
2018-05-01T21:10:48.400Z,101232.47
2018-05-01T21:13:16.764Z,101240.42
2018-05-01T21:15:45.272Z,101237.34
2018-05-01T21:18:13.564Z,101242.02
2018-05-01T21:20:41.926Z,101244.86
2018-05-01T21:23:10.230Z,101247.92
2018-05-01T21:25:39.308Z,101253.42
2018-05-01T21:28:08.908Z,101240.04
2018-05-01T21:30:38.020Z,101240.69
2018-05-01T21:33:06.369Z,101244.02
2018-05-01T21:35:34.715Z,101240.72
2018-05-01T21:38:03.032Z,101243.20
2018-05-01T21:40:31.505Z,101245.41
2018-05-01T21:42:59.984Z,101244.03
2018-05-01T21:45:28.258Z,101253.61
2018-05-01T21:47:56.599Z,101252.27
2018-05-01T21:50:26.067Z,101255.10
2018-05-01T21:52:54.398Z,101267.00
2018-05-01T21:55:22.756Z,101279.53
2018-05-01T21:57:51.129Z,101277.25
2018-05-01T22:00:19.435Z,101281.33
2018-05-01T22:02:47.760Z,101290.81
2018-05-01T22:05:16.908Z,101292.32
2018-05-01T22:07:45.208Z,101290.97
2018-05-01T22:10:13.528Z,101302.22
2018-05-01T22:12:42.156Z,101303.00
2018-05-01T22:15:10.475Z,101288.77
2018-05-01T22:17:39.351Z,101290.48
2018-05-01T22:20:07.705Z,101300.72
2018-05-01T22:22:36.032Z,101298.73
2018-05-01T22:25:04.342Z,101296.95
2018-05-01T22:27:32.688Z,101301.44
2018-05-01T22:30:01.004Z,101301.16
2018-05-01T22:32:30.234Z,101299.30
2018-05-01T22:34:58.926Z,101300.06
2018-05-01T22:37:27.268Z,101297.23
2018-05-01T22:39:56.363Z,101297.87
2018-05-01T22:42:25.479Z,101298.88
2018-05-01T22:44:53.775Z,101312.80
2018-05-01T22:47:22.116Z,101319.98
2018-05-01T22:49:50.454Z,101325.47
2018-05-01T22:52:18.760Z,101328.77
2018-05-01T22:54:47.858Z,101323.68
2018-05-01T22:57:17.089Z,101322.36
2018-05-01T22:59:46.259Z,101317.07
2018-05-01T23:02:15.658Z,101322.95
2018-05-01T23:04:44.009Z,101331.70
2018-05-01T23:07:12.355Z,101338.71
2018-05-01T23:09:40.811Z,101336.83
2018-05-01T23:12:09.170Z,101337.66
2018-05-01T23:14:37.516Z,101339.41
2018-05-01T23:17:05.839Z,101330.65
2018-05-01T23:19:35.269Z,101325.20
2018-05-01T23:22:03.629Z,101309.61
2018-05-01T23:24:31.942Z,101302.22
2018-05-01T23:27:00.336Z,101302.13
2018-05-01T23:29:28.654Z,101309.65
2018-05-01T23:31:57.739Z,101314.84
2018-05-01T23:34:26.116Z,101310.72
2018-05-01T23:36:54.463Z,101309.57
2018-05-01T23:39:22.764Z,101313.02
2018-05-01T23:41:51.425Z,101313.84
2018-05-01T23:44:20.545Z,101310.94
2018-05-01T23:46:48.861Z,101313.67
2018-05-01T23:49:17.964Z,101302.41
2018-05-01T23:51:46.306Z,101301.19
2018-05-01T23:54:14.670Z,101308.09
2018-05-01T23:56:43.060Z,101294.09
2018-05-01T23:59:11.387Z,101298.03
